Time,TemperatureF,DewpointF,PressureIn,WindDirection,WindDirectionDegrees,WindSpeedMPH,WindSpeedGustMPH,Humidity,HourlyPrecipIn,Conditions,Clouds,dailyrainin,SoftwareType,DateUTC
2013-02-01 00:02:00,40.7,36.2,30.21,NNW,338,0.0,0.0,84,0.00,,,0.00,WUHU216HW,2013-02-01 08:02:00,
2013-02-01 00:07:00,40.7,35.8,30.21,NNW,338,0.0,0.0,83,0.00,,,0.00,WUHU216HW,2013-02-01 08:07:00,
2013-02-01 00:12:00,40.3,35.8,30.21,NNW,338,0.0,0.0,84,0.00,,,0.00,WUHU216HW,2013-02-01 08:12:00,
2013-02-01 00:17:00,40.1,35.6,30.21,NNW,338,0.0,0.0,84,0.00,,,0.00,WUHU216HW,2013-02-01 08:17:00,
2013-02-01 00:22:00,40.0,35.5,30.21,NNW,338,0.0,0.0,84,0.00,,,0.00,WUHU216HW,2013-02-01 08:22:00,
2013-02-01 00:27:00,40.0,35.5,30.21,NNW,338,0.0,0.0,84,0.00,,,0.00,WUHU216HW,2013-02-01 08:27:00,
2013-02-01 00:32:00,40.0,35.5,30.21,NNW,338,0.0,0.0,84,0.00,,,0.00,WUHU216HW,2013-02-01 08:32:00,
2013-02-01 00:37:00,40.0,35.5,30.21,NNW,338,0.0,0.0,84,0.00,,,0.00,WUHU216HW,2013-02-01 08:37:00,
2013-02-01 00:42:00,40.0,35.5,30.21,NNW,338,0.0,0.0,84,0.00,,,0.00,WUHU216HW,2013-02-01 08:42:00,
2013-02-01 00:47:00,39.8,35.3,30.21,NNW,338,0.0,0.0,84,0.00,,,0.00,WUHU216HW,2013-02-01 08:47:00,
2013-02-01 00:52:00,39.6,35.2,30.21,NNW,338,0.0,0.0,84,0.00,,,0.00,WUHU216HW,2013-02-01 08:52:00,
2013-02-01 00:57:00,39.2,34.8,30.21,NNW,338,0.0,0.0,84,0.00,,,0.00,WUHU216HW,2013-02-01 08:57:00,
2013-02-01 01:02:00,39.1,34.7,30.21,NNW,338,0.0,0.0,84,0.00,,,0.00,WUHU216HW,2013-02-01 09:02:00,
2013-02-01 01:07:00,38.9,34.5,30.21,NNW,338,0.0,0.0,84,0.00,,,0.00,WUHU216HW,2013-02-01 09:07:00,
2013-02-01 01:12:00,38.5,34.1,30.21,NNW,338,0.0,0.0,84,0.00,,,0.00,WUHU216HW,2013-02-01 09:12:00,
2013-02-01 01:17:00,38.3,33.9,30.21,NNW,338,0.0,0.0,84,0.00,,,0.00,WUHU216HW,2013-02-01 09:17:00,
2013-02-01 01:22:00,38.2,34.0,30.21,NNW,338,0.0,0.0,85,0.00,,,0.00,WUHU216HW,2013-02-01 09:22:00,
2013-02-01 01:27:00,38.2,34.3,30.21,NNW,338,0.0,0.0,86,0.00,,,0.00,WUHU216HW,2013-02-01 09:27:00,
2013-02-01 01:32:00,38.2,34.0,30.21,NNW,338,0.0,0.0,85,0.00,,,0.00,WUHU216HW,2013-02-01 09:32:00,
2013-02-01 01:37:00,38.0,33.8,30.21,NNW,338,0.0,0.0,85,0.00,,,0.00,WUHU216HW,2013-02-01 09:37:00,
2013-02-01 01:42:00,37.8,33.7,30.21,NNW,338,0.0,0.0,85,0.00,,,0.00,WUHU216HW,2013-02-01 09:42:00,
2013-02-01 01:47:00,37.8,33.7,30.20,NNW,338,0.0,0.0,85,0.00,,,0.00,WUHU216HW,2013-02-01 09:47:00,
2013-02-01 01:52:00,37.8,33.7,30.21,NNW,338,0.0,0.0,85,0.00,,,0.00,WUHU216HW,2013-02-01 09:52:00,
2013-02-01 01:57:00,37.4,33.3,30.21,NNW,338,0.0,0.0,85,0.00,,,0.00,WUHU216HW,2013-02-01 09:57:00,
2013-02-01 02:02:00,37.4,33.3,30.21,NNW,338,0.0,0.0,85,0.00,,,0.00,WUHU216HW,2013-02-01 10:02:00,
2013-02-01 02:07:00,37.6,33.5,30.20,ESE,113,0.0,0.0,85,0.00,,,0.00,WUHU216HW,2013-02-01 10:07:00,
2013-02-01 02:12:00,37.3,33.1,30.21,ESE,113,0.0,0.0,85,0.00,,,0.00,WUHU216HW,2013-02-01 10:12:00,
2013-02-01 02:17:00,37.1,32.9,30.20,ENE,68,0.0,0.4,85,0.00,,,0.00,WUHU216HW,2013-02-01 10:17:00,
2013-02-01 02:22:00,36.9,32.8,30.20,ENE,68,0.0,0.4,85,0.00,,,0.00,WUHU216HW,2013-02-01 10:22:00,
2013-02-01 02:27:00,36.5,32.7,30.20,ENE,68,0.0,0.0,86,0.00,,,0.00,WUHU216HW,2013-02-01 10:27:00,
2013-02-01 02:32:00,36.7,32.9,30.21,ENE,68,0.0,0.0,86,0.00,,,0.00,WUHU216HW,2013-02-01 10:32:00,
2013-02-01 02:37:00,36.5,32.7,30.21,ENE,68,0.0,0.0,86,0.00,,,0.00,WUHU216HW,2013-02-01 10:37:00,
2013-02-01 02:42:00,36.4,32.5,30.21,ESE,113,0.0,0.0,86,0.00,,,0.00,WUHU216HW,2013-02-01 10:42:00,
2013-02-01 02:47:00,36.4,32.5,30.21,ESE,113,0.0,0.0,86,0.00,,,0.00,WUHU216HW,2013-02-01 10:47:00,
2013-02-01 02:52:00,36.0,32.1,30.21,East,90,0.0,0.0,86,0.00,,,0.00,WUHU216HW,2013-02-01 10:52:00,
2013-02-01 02:57:00,35.8,32.0,30.21,ENE,68,0.0,0.0,86,0.00,,,0.00,WUHU216HW,2013-02-01 10:57:00,
2013-02-01 03:02:00,35.8,32.2,30.21,ENE,68,0.0,0.0,87,0.00,,,0.00,WUHU216HW,2013-02-01 11:02:00,
2013-02-01 03:07:00,36.2,32.6,30.21,SE,135,0.0,0.0,87,0.00,,,0.00,WUHU216HW,2013-02-01 11:07:00,
2013-02-01 03:12:00,36.2,32.3,30.21,SE,135,0.0,0.0,86,0.00,,,0.00,WUHU216HW,2013-02-01 11:12:00,
2013-02-01 03:17:00,36.0,32.1,30.21,SE,135,0.0,0.0,86,0.00,,,0.00,WUHU216HW,2013-02-01 11:17:00,
2013-02-01 03:22:00,36.0,32.4,30.21,SE,135,0.0,0.0,87,0.00,,,0.00,WUHU216HW,2013-02-01 11:22:00,
2013-02-01 03:27:00,36.2,32.6,30.21,SE,135,0.0,0.0,87,0.00,,,0.00,WUHU216HW,2013-02-01 11:27:00,
2013-02-01 03:32:00,35.8,32.2,30.21,ESE,113,0.0,0.0,87,0.00,,,0.00,WUHU216HW,2013-02-01 11:32:00,
2013-02-01 03:37:00,35.6,31.8,30.21,ENE,68,0.0,0.0,86,0.00,,,0.00,WUHU216HW,2013-02-01 11:37:00,
2013-02-01 03:42:00,35.6,31.8,30.21,ENE,68,0.0,0.0,86,0.00,,,0.00,WUHU216HW,2013-02-01 11:42:00,
2013-02-01 03:47:00,35.6,31.8,30.21,NNW,338,0.0,0.0,86,0.00,,,0.00,WUHU216HW,2013-02-01 11:47:00,
2013-02-01 03:52:00,35.6,31.8,30.21,NNW,338,0.0,0.0,86,0.00,,,0.00,WUHU216HW,2013-02-01 11:52:00,
2013-02-01 03:57:00,35.6,31.8,30.21,NNW,338,0.0,0.0,86,0.00,,,0.00,WUHU216HW,2013-02-01 11:57:00,
2013-02-01 04:02:00,35.6,31.8,30.21,NNW,338,0.0,0.0,86,0.00,,,0.00,WUHU216HW,2013-02-01 12:02:00,
2013-02-01 04:07:00,35.6,32.0,30.21,NNW,338,0.0,0.0,87,0.00,,,0.00,WUHU216HW,2013-02-01 12:07:00,
2013-02-01 04:12:00,36.0,32.4,30.21,NW,315,0.0,0.0,87,0.00,,,0.00,WUHU216HW,2013-02-01 12:12:00,
2013-02-01 04:17:00,36.0,32.4,30.21,NW,315,0.0,0.0,87,0.00,,,0.00,WUHU216HW,2013-02-01 12:17:00,
2013-02-01 04:22:00,35.8,32.2,30.21,South,180,0.0,0.0,87,0.00,,,0.00,WUHU216HW,2013-02-01 12:22:00,
2013-02-01 04:27:00,36.0,32.4,30.21,South,180,0.0,0.0,87,0.00,,,0.00,WUHU216HW,2013-02-01 12:27:00,
2013-02-01 04:32:00,35.8,32.2,30.21,South,180,0.0,0.2,87,0.00,,,0.00,WUHU216HW,2013-02-01 12:32:00,
2013-02-01 04:37:00,35.8,32.2,30.22,South,180,0.0,0.2,87,0.00,,,0.00,WUHU216HW,2013-02-01 12:37:00,
2013-02-01 04:42:00,35.6,32.0,30.22,South,180,0.0,0.0,87,0.00,,,0.00,WUHU216HW,2013-02-01 12:42:00,
2013-02-01 04:47:00,35.6,32.0,30.22,South,180,0.0,0.0,87,0.00,,,0.00,WUHU216HW,2013-02-01 12:47:00,
2013-02-01 04:52:00,35.6,32.0,30.21,South,180,0.0,0.0,87,0.00,,,0.00,WUHU216HW,2013-02-01 12:52:00,
2013-02-01 04:57:00,35.5,31.9,30.22,South,180,0.0,0.0,87,0.00,,,0.00,WUHU216HW,2013-02-01 12:57:00,
2013-02-01 05:02:00,35.3,31.7,30.22,South,180,0.0,0.0,87,0.00,,,0.00,WUHU216HW,2013-02-01 13:02:00,
2013-02-01 05:07:00,35.1,31.5,30.22,South,180,0.0,0.0,87,0.00,,,0.00,WUHU216HW,2013-02-01 13:07:00,
2013-02-01 05:12:00,35.3,31.7,30.22,South,180,0.0,0.0,87,0.00,,,0.00,WUHU216HW,2013-02-01 13:12:00,
2013-02-01 05:17:00,35.1,31.2,30.22,South,180,0.0,0.0,86,0.00,,,0.00,WUHU216HW,2013-02-01 13:17:00,
2013-02-01 05:22:00,34.9,31.1,30.22,South,180,0.0,0.0,86,0.00,,,0.00,WUHU216HW,2013-02-01 13:22:00,
2013-02-01 05:27:00,34.9,31.1,30.21,South,180,0.0,0.0,86,0.00,,,0.00,WUHU216HW,2013-02-01 13:27:00,
2013-02-01 05:32:00,34.6,30.7,30.22,East,90,0.0,0.0,86,0.00,,,0.00,WUHU216HW,2013-02-01 13:32:00,
2013-02-01 05:38:00,34.4,30.5,30.22,East,90,0.0,0.0,86,0.00,,,0.00,WUHU216HW,2013-02-01 13:38:00,
2013-02-01 05:43:00,34.2,30.3,30.22,East,90,0.0,0.0,86,0.00,,,0.00,WUHU216HW,2013-02-01 13:43:00,
2013-02-01 05:48:00,34.2,30.6,30.22,East,90,0.0,0.0,87,0.00,,,0.00,WUHU216HW,2013-02-01 13:48:00,
2013-02-01 05:53:00,34.2,30.6,30.22,ENE,68,0.0,0.0,87,0.00,,,0.00,WUHU216HW,2013-02-01 13:53:00,
2013-02-01 05:58:00,34.2,30.6,30.22,NE,45,0.0,0.0,87,0.00,,,0.00,WUHU216HW,2013-02-01 13:58:00,
2013-02-01 06:03:00,34.2,30.6,30.22,NNW,338,0.0,0.0,87,0.00,,,0.00,WUHU216HW,2013-02-01 14:03:00,
2013-02-01 06:08:00,34.2,30.6,30.22,WNW,293,0.2,0.7,87,0.00,,,0.00,WUHU216HW,2013-02-01 14:08:00,
2013-02-01 06:13:00,34.4,30.8,30.22,West,270,0.0,0.7,87,0.00,,,0.00,WUHU216HW,2013-02-01 14:13:00,
2013-02-01 06:18:00,34.2,30.6,30.22,SE,135,0.0,0.2,87,0.00,,,0.00,WUHU216HW,2013-02-01 14:18:00,
2013-02-01 06:23:00,34.2,30.6,30.23,ESE,113,0.2,0.2,87,0.00,,,0.00,WUHU216HW,2013-02-01 14:23:00,
2013-02-01 06:28:00,34.0,30.8,30.22,SSE,158,0.0,0.2,88,0.00,,,0.00,WUHU216HW,2013-02-01 14:28:00,
2013-02-01 06:33:00,33.8,30.2,30.22,ESE,113,0.0,0.2,87,0.00,,,0.00,WUHU216HW,2013-02-01 14:33:00,
2013-02-01 06:38:00,33.8,30.6,30.22,ESE,113,0.0,0.4,88,0.00,,,0.00,WUHU216HW,2013-02-01 14:38:00,
2013-02-01 06:43:00,33.7,30.4,30.22,SE,135,0.0,0.4,88,0.00,,,0.00,WUHU216HW,2013-02-01 14:43:00,
2013-02-01 06:48:00,33.8,30.6,30.22,South,180,0.0,0.2,88,0.00,,,0.00,WUHU216HW,2013-02-01 14:48:00,
2013-02-01 06:53:00,33.8,30.6,30.22,NNW,338,0.0,0.0,88,0.00,,,0.00,WUHU216HW,2013-02-01 14:53:00,
2013-02-01 06:58:00,33.7,30.4,30.22,NNW,338,0.0,0.0,88,0.00,,,0.00,WUHU216HW,2013-02-01 14:58:00,
2013-02-01 07:03:00,33.7,30.4,30.23,NNW,338,0.0,0.0,88,0.00,,,0.00,WUHU216HW,2013-02-01 15:03:00,
2013-02-01 07:08:00,33.5,30.5,30.22,NNW,338,0.0,0.0,89,0.00,,,0.00,WUHU216HW,2013-02-01 15:08:00,
2013-02-01 07:13:00,33.5,30.5,30.22,NW,315,0.0,0.4,89,0.00,,,0.00,WUHU216HW,2013-02-01 15:13:00,
2013-02-01 07:18:00,33.7,30.7,30.22,NW,315,0.0,0.4,89,0.00,,,0.00,WUHU216HW,2013-02-01 15:18:00,
2013-02-01 07:23:00,33.8,30.9,30.23,NW,315,0.0,0.0,89,0.00,,,0.00,WUHU216HW,2013-02-01 15:23:00,
2013-02-01 07:28:00,33.8,30.9,30.23,NW,315,0.0,0.0,89,0.00,,,0.00,WUHU216HW,2013-02-01 15:28:00,
2013-02-01 07:33:00,34.2,31.2,30.22,NNW,338,0.0,0.0,89,0.00,,,0.00,WUHU216HW,2013-02-01 15:33:00,
2013-02-01 07:38:00,34.4,31.4,30.23,NNW,338,0.0,0.0,89,0.00,,,0.00,WUHU216HW,2013-02-01 15:38:00,
2013-02-01 07:43:00,34.7,31.8,30.23,NNW,338,0.0,0.0,89,0.00,,,0.00,WUHU216HW,2013-02-01 15:43:00,
2013-02-01 07:48:00,35.3,32.3,30.23,SSE,158,0.4,0.4,89,0.00,,,0.00,WUHU216HW,2013-02-01 15:48:00,
2013-02-01 07:53:00,35.8,33.1,30.23,SSW,203,0.0,0.4,90,0.00,,,0.00,WUHU216HW,2013-02-01 15:53:00,
2013-02-01 07:58:00,36.4,33.7,30.24,SSE,158,0.7,0.9,90,0.00,,,0.00,WUHU216HW,2013-02-01 15:58:00,
2013-02-01 08:03:00,37.1,34.4,30.24,ESE,113,0.9,3.1,90,0.00,,,0.00,WUHU216HW,2013-02-01 16:03:00,
2013-02-01 08:08:00,37.4,34.7,30.24,SE,135,0.0,3.1,90,0.00,,,0.00,WUHU216HW,2013-02-01 16:08:00,
2013-02-01 08:13:00,38.2,35.5,30.25,SE,135,0.0,0.9,90,0.00,,,0.00,WUHU216HW,2013-02-01 16:13:00,
2013-02-01 08:18:00,38.9,36.5,30.25,SE,135,0.0,0.2,91,0.00,,,0.00,WUHU216HW,2013-02-01 16:18:00,
2013-02-01 08:23:00,40.1,38.3,30.24,North,0,0.0,2.0,93,0.00,,,0.00,WUHU216HW,2013-02-01 16:23:00,
2013-02-01 08:28:00,41.0,39.2,30.25,NE,45,0.0,2.0,93,0.00,,,0.00,WUHU216HW,2013-02-01 16:28:00,
2013-02-01 08:33:00,41.6,39.7,30.25,South,180,0.9,1.8,93,0.00,,,0.00,WUHU216HW,2013-02-01 16:33:00,
2013-02-01 08:38:00,42.3,40.4,30.25,SE,135,0.9,2.2,93,0.00,,,0.00,WUHU216HW,2013-02-01 16:38:00,
2013-02-01 08:43:00,42.8,41.0,30.26,ESE,113,1.1,2.2,93,0.00,,,0.00,WUHU216HW,2013-02-01 16:43:00,
2013-02-01 08:48:00,43.7,42.1,30.25,ESE,113,0.0,1.3,94,0.00,,,0.00,WUHU216HW,2013-02-01 16:48:00,
2013-02-01 08:53:00,44.5,42.6,30.25,South,180,0.4,1.6,93,0.00,,,0.00,WUHU216HW,2013-02-01 16:53:00,
2013-02-01 08:58:00,45.0,42.6,30.25,SSE,158,1.6,2.5,91,0.00,,,0.00,WUHU216HW,2013-02-01 16:58:00,
2013-02-01 09:03:00,45.7,43.3,30.25,SE,135,0.4,2.5,91,0.00,,,0.00,WUHU216HW,2013-02-01 17:03:00,
2013-02-01 09:08:00,46.4,44.0,30.26,SW,225,1.8,2.5,91,0.00,,,0.00,WUHU216HW,2013-02-01 17:08:00,
2013-02-01 09:13:00,46.8,44.1,30.26,SE,135,0.9,2.2,90,0.00,,,0.00,WUHU216HW,2013-02-01 17:13:00,
2013-02-01 09:18:00,47.3,44.6,30.26,SE,135,0.4,2.7,90,0.00,,,0.00,WUHU216HW,2013-02-01 17:18:00,
2013-02-01 09:23:00,47.9,44.8,30.26,SSW,203,1.6,2.7,89,0.00,,,0.00,WUHU216HW,2013-02-01 17:23:00,
2013-02-01 09:28:00,48.6,45.2,30.26,SSE,158,0.9,2.5,88,0.00,,,0.00,WUHU216HW,2013-02-01 17:28:00,
2013-02-01 09:33:00,49.3,45.5,30.26,SW,225,2.2,3.1,87,0.00,,,0.00,WUHU216HW,2013-02-01 17:33:00,
2013-02-01 09:38:00,49.7,45.9,30.26,SW,225,0.4,3.1,87,0.00,,,0.00,WUHU216HW,2013-02-01 17:38:00,
2013-02-01 09:43:00,50.2,46.5,30.26,South,180,1.6,2.2,87,0.00,,,0.00,WUHU216HW,2013-02-01 17:43:00,
2013-02-01 09:48:00,51.1,47.0,30.26,WSW,248,0.9,3.4,86,0.00,,,0.00,WUHU216HW,2013-02-01 17:48:00,
2013-02-01 09:53:00,51.7,47.0,30.26,SSE,158,1.1,3.4,84,0.00,,,0.00,WUHU216HW,2013-02-01 17:53:00,
2013-02-01 09:58:00,52.2,46.9,30.25,South,180,1.1,2.2,82,0.00,,,0.00,WUHU216HW,2013-02-01 17:58:00,
2013-02-01 10:03:00,52.7,47.4,30.25,SW,225,0.4,2.2,82,0.00,,,0.00,WUHU216HW,2013-02-01 18:03:00,
2013-02-01 10:08:00,53.3,48.0,30.25,SW,225,0.7,1.8,82,0.00,,,0.00,WUHU216HW,2013-02-01 18:08:00,
2013-02-01 10:13:00,53.8,48.2,30.25,WSW,248,0.9,1.8,81,0.00,,,0.00,WUHU216HW,2013-02-01 18:13:00,
2013-02-01 10:18:00,54.0,48.1,30.25,SW,225,0.4,1.8,80,0.00,,,0.00,WUHU216HW,2013-02-01 18:18:00,
2013-02-01 10:23:00,54.7,48.0,30.24,West,270,1.1,1.8,78,0.00,,,0.00,WUHU216HW,2013-02-01 18:23:00,
2013-02-01 10:28:00,54.9,48.2,30.24,WNW,293,1.6,1.6,78,0.00,,,0.00,WUHU216HW,2013-02-01 18:28:00,
2013-02-01 10:33:00,55.4,48.0,30.24,WNW,293,0.9,1.8,76,0.00,,,0.00,WUHU216HW,2013-02-01 18:33:00,
2013-02-01 10:38:00,55.6,47.8,30.23,NNW,338,0.0,1.8,75,0.00,,,0.00,WUHU216HW,2013-02-01 18:38:00,
2013-02-01 10:43:00,56.0,48.5,30.23,SW,225,1.3,1.6,76,0.00,,,0.00,WUHU216HW,2013-02-01 18:43:00,
2013-02-01 10:48:00,56.3,48.8,30.23,East,90,0.4,1.8,76,0.00,,,0.00,WUHU216HW,2013-02-01 18:48:00,
2013-02-01 10:53:00,56.7,48.8,30.22,SW,225,0.0,1.8,75,0.00,,,0.00,WUHU216HW,2013-02-01 18:53:00,
2013-02-01 10:58:00,57.1,48.8,30.23,NNW,338,0.4,1.8,74,0.00,,,0.00,WUHU216HW,2013-02-01 18:58:00,
2013-02-01 11:03:00,57.6,49.3,30.22,West,270,1.1,2.0,74,0.00,,,0.00,WUHU216HW,2013-02-01 19:03:00,
2013-02-01 11:08:00,58.1,49.5,30.22,WSW,248,0.0,2.0,73,0.00,,,0.00,WUHU216HW,2013-02-01 19:08:00,
2013-02-01 11:13:00,58.7,49.7,30.22,NE,45,0.0,1.8,72,0.00,,,0.00,WUHU216HW,2013-02-01 19:13:00,
2013-02-01 11:18:00,59.0,49.7,30.21,WNW,293,0.4,4.0,71,0.00,,,0.00,WUHU216HW,2013-02-01 19:18:00,
2013-02-01 11:23:00,59.4,48.4,30.21,North,0,0.4,4.0,67,0.00,,,0.00,WUHU216HW,2013-02-01 19:23:00,
2013-02-01 11:28:00,59.8,49.6,30.21,West,270,1.3,3.8,69,0.00,,,0.00,WUHU216HW,2013-02-01 19:28:00,
2013-02-01 11:33:00,59.9,49.0,30.21,West,270,0.7,3.4,67,0.00,,,0.00,WUHU216HW,2013-02-01 19:33:00,
2013-02-01 11:38:00,60.1,48.3,30.21,NNE,23,0.4,3.4,65,0.00,,,0.00,WUHU216HW,2013-02-01 19:38:00,
2013-02-01 11:43:00,60.1,47.9,30.21,SW,225,0.4,3.4,64,0.00,,,0.00,WUHU216HW,2013-02-01 19:43:00,
2013-02-01 11:48:00,60.1,48.8,30.20,SSE,158,2.0,2.5,66,0.00,,,0.00,WUHU216HW,2013-02-01 19:48:00,
2013-02-01 11:53:00,60.8,49.1,30.20,WSW,248,2.2,3.1,65,0.00,,,0.00,WUHU216HW,2013-02-01 19:53:00,
2013-02-01 11:58:00,61.4,49.5,30.20,SE,135,1.8,3.1,65,0.00,,,0.00,WUHU216HW,2013-02-01 19:58:00,
2013-02-01 12:03:00,61.7,49.4,30.20,SSW,203,2.0,3.1,64,0.00,,,0.00,WUHU216HW,2013-02-01 20:03:00,
2013-02-01 12:08:00,61.9,50.1,30.20,SSW,203,1.8,3.1,65,0.00,,,0.00,WUHU216HW,2013-02-01 20:08:00,
2013-02-01 12:13:00,62.3,50.3,30.19,WSW,248,0.9,3.1,65,0.00,,,0.00,WUHU216HW,2013-02-01 20:13:00,
2013-02-01 12:18:00,62.3,49.2,30.19,SW,225,3.6,3.6,62,0.00,,,0.00,WUHU216HW,2013-02-01 20:18:00,
2013-02-01 12:23:00,62.5,49.7,30.19,NNE,23,0.4,3.6,63,0.00,,,0.00,WUHU216HW,2013-02-01 20:23:00,
2013-02-01 12:28:00,62.5,48.9,30.18,NW,315,2.2,3.4,61,0.00,,,0.00,WUHU216HW,2013-02-01 20:28:00,
2013-02-01 12:33:00,62.6,49.1,30.18,West,270,2.5,3.4,61,0.00,,,0.00,WUHU216HW,2013-02-01 20:33:00,
2013-02-01 12:38:00,62.8,48.2,30.18,West,270,0.7,4.0,59,0.00,,,0.00,WUHU216HW,2013-02-01 20:38:00,
2013-02-01 12:43:00,63.0,49.3,30.18,SSW,203,0.7,4.0,61,0.00,,,0.00,WUHU216HW,2013-02-01 20:43:00,
2013-02-01 12:48:00,63.4,48.8,30.18,NW,315,1.1,3.1,59,0.00,,,0.00,WUHU216HW,2013-02-01 20:48:00,
2013-02-01 12:53:00,63.7,48.6,30.18,West,270,2.2,4.0,58,0.00,,,0.00,WUHU216HW,2013-02-01 20:53:00,
2013-02-01 12:58:00,63.7,48.6,30.18,North,0,1.1,4.0,58,0.00,,,0.00,WUHU216HW,2013-02-01 20:58:00,
2013-02-01 13:03:00,63.9,47.8,30.18,North,0,2.2,2.7,56,0.00,,,0.00,WUHU216HW,2013-02-01 21:03:00,
2013-02-01 13:08:00,63.9,47.4,30.17,NNW,338,0.4,3.8,55,0.00,,,0.00,WUHU216HW,2013-02-01 21:08:00,
2013-02-01 13:13:00,63.9,47.8,30.17,WNW,293,1.6,3.8,56,0.00,,,0.00,WUHU216HW,2013-02-01 21:13:00,
2013-02-01 13:18:00,64.1,47.0,30.16,WNW,293,1.3,3.1,54,0.00,,,0.00,WUHU216HW,2013-02-01 21:18:00,
2013-02-01 13:23:00,64.3,47.2,30.15,NW,315,0.4,3.1,54,0.00,,,0.00,WUHU216HW,2013-02-01 21:23:00,
2013-02-01 13:28:00,64.4,47.8,30.15,NW,315,1.1,2.9,55,0.00,,,0.00,WUHU216HW,2013-02-01 21:28:00,
2013-02-01 13:33:00,64.6,48.0,30.15,WNW,293,1.8,3.6,55,0.00,,,0.00,WUHU216HW,2013-02-01 21:33:00,
2013-02-01 13:38:00,64.8,47.7,30.15,WSW,248,0.9,3.6,54,0.00,,,0.00,WUHU216HW,2013-02-01 21:38:00,
2013-02-01 13:43:00,65.2,48.5,30.14,NW,315,1.8,3.4,55,0.00,,,0.00,WUHU216HW,2013-02-01 21:43:00,
2013-02-01 13:48:00,65.3,47.3,30.14,NNW,338,1.8,4.3,52,0.00,,,0.00,WUHU216HW,2013-02-01 21:48:00,
2013-02-01 13:53:00,65.3,47.3,30.14,North,0,0.7,4.3,52,0.00,,,0.00,WUHU216HW,2013-02-01 21:53:00,
2013-02-01 13:58:00,65.3,47.7,30.14,North,0,0.2,2.9,53,0.00,,,0.00,WUHU216HW,2013-02-01 21:58:00,
2013-02-01 14:03:00,65.7,49.1,30.14,WNW,293,1.3,2.9,55,0.00,,,0.00,WUHU216HW,2013-02-01 22:03:00,
2013-02-01 14:08:00,65.9,48.8,30.13,NW,315,1.8,4.5,54,0.00,,,0.00,WUHU216HW,2013-02-01 22:08:00,
2013-02-01 14:13:00,66.1,49.0,30.13,NW,315,3.4,4.5,54,0.00,,,0.00,WUHU216HW,2013-02-01 22:13:00,
2013-02-01 14:18:00,66.2,48.2,30.13,NW,315,1.8,3.4,52,0.00,,,0.00,WUHU216HW,2013-02-01 22:18:00,
2013-02-01 14:23:00,66.2,49.2,30.13,WSW,248,1.1,3.4,54,0.00,,,0.00,WUHU216HW,2013-02-01 22:23:00,
2013-02-01 14:28:00,66.4,49.2,30.13,NW,315,1.8,3.1,54,0.00,,,0.00,WUHU216HW,2013-02-01 22:28:00,
2013-02-01 14:33:00,66.4,48.3,30.13,NW,315,3.4,3.8,52,0.00,,,0.00,WUHU216HW,2013-02-01 22:33:00,
2013-02-01 14:38:00,66.6,48.4,30.13,NNW,338,0.4,3.8,52,0.00,,,0.00,WUHU216HW,2013-02-01 22:38:00,
2013-02-01 14:43:00,66.4,48.8,30.13,NW,315,0.4,2.9,53,0.00,,,0.00,WUHU216HW,2013-02-01 22:43:00,
2013-02-01 14:48:00,66.6,49.0,30.13,SW,225,1.6,1.8,53,0.00,,,0.00,WUHU216HW,2013-02-01 22:48:00,
2013-02-01 14:53:00,66.8,47.6,30.14,SW,225,1.1,3.8,50,0.00,,,0.00,WUHU216HW,2013-02-01 22:53:00,
2013-02-01 14:58:00,66.6,48.0,30.14,South,180,2.5,3.8,51,0.00,,,0.00,WUHU216HW,2013-02-01 22:58:00,
2013-02-01 15:03:00,66.6,47.5,30.14,West,270,0.4,2.9,50,0.00,,,0.00,WUHU216HW,2013-02-01 23:03:00,
2013-02-01 15:08:00,66.6,48.0,30.14,WSW,248,1.1,3.1,51,0.00,,,0.00,WUHU216HW,2013-02-01 23:08:00,
2013-02-01 15:13:00,66.2,47.6,30.14,South,180,2.9,3.4,51,0.00,,,0.00,WUHU216HW,2013-02-01 23:13:00,
2013-02-01 15:18:00,66.1,47.4,30.15,SW,225,2.5,3.6,51,0.00,,,0.00,WUHU216HW,2013-02-01 23:18:00,
2013-02-01 15:23:00,66.1,48.0,30.15,SW,225,2.2,3.8,52,0.00,,,0.00,WUHU216HW,2013-02-01 23:23:00,
2013-02-01 15:28:00,65.9,47.8,30.15,SW,225,1.8,3.8,52,0.00,,,0.00,WUHU216HW,2013-02-01 23:28:00,
2013-02-01 15:33:00,65.9,48.2,30.15,SW,225,1.3,3.4,53,0.00,,,0.00,WUHU216HW,2013-02-01 23:33:00,
2013-02-01 15:38:00,65.7,48.1,30.16,WSW,248,0.4,2.5,53,0.00,,,0.00,WUHU216HW,2013-02-01 23:38:00,
2013-02-01 15:43:00,65.9,48.2,30.16,SSE,158,1.1,2.5,53,0.00,,,0.00,WUHU216HW,2013-02-01 23:43:00,
2013-02-01 15:48:00,65.7,49.1,30.16,SSE,158,0.9,2.5,55,0.00,,,0.00,WUHU216HW,2013-02-01 23:48:00,
2013-02-01 15:53:00,65.5,49.3,30.16,SW,225,1.6,2.5,56,0.00,,,0.00,WUHU216HW,2013-02-01 23:53:00,
2013-02-01 15:58:00,65.2,49.0,30.16,SSW,203,1.8,2.5,56,0.00,,,0.00,WUHU216HW,2013-02-01 23:58:00,
2013-02-01 16:03:00,65.0,48.8,30.16,SSE,158,1.3,2.0,56,0.00,,,0.00,WUHU216HW,2013-02-02 00:03:00,
2013-02-01 16:08:00,64.8,49.2,30.16,SSE,158,0.7,1.8,57,0.00,,,0.00,WUHU216HW,2013-02-02 00:08:00,
2013-02-01 16:13:00,64.8,49.2,30.16,SSW,203,0.4,1.3,57,0.00,,,0.00,WUHU216HW,2013-02-02 00:13:00,
2013-02-01 16:18:00,64.4,49.2,30.16,SSE,158,0.4,1.3,58,0.00,,,0.00,WUHU216HW,2013-02-02 00:18:00,
2013-02-01 16:24:00,64.4,49.2,30.16,SSW,203,0.2,0.9,58,0.00,,,0.00,WUHU216HW,2013-02-02 00:24:00,
2013-02-01 16:29:00,64.3,49.6,30.16,South,180,0.0,0.9,59,0.00,,,0.00,WUHU216HW,2013-02-02 00:29:00,
2013-02-01 16:34:00,64.1,49.9,30.16,South,180,0.0,0.2,60,0.00,,,0.00,WUHU216HW,2013-02-02 00:34:00,
2013-02-01 16:39:00,63.9,49.8,30.16,South,180,0.0,0.0,60,0.00,,,0.00,WUHU216HW,2013-02-02 00:39:00,
2013-02-01 16:44:00,63.5,49.9,30.15,South,180,0.0,0.2,61,0.00,,,0.00,WUHU216HW,2013-02-02 00:44:00,
2013-02-01 16:49:00,62.8,49.6,30.15,South,180,0.0,0.2,62,0.00,,,0.00,WUHU216HW,2013-02-02 00:49:00,
2013-02-01 16:54:00,62.5,49.2,30.15,South,180,0.0,0.2,62,0.00,,,0.00,WUHU216HW,2013-02-02 00:54:00,
2013-02-01 16:59:00,62.3,49.5,30.16,South,180,0.0,0.0,63,0.00,,,0.00,WUHU216HW,2013-02-02 00:59:00,
2013-02-01 17:04:00,61.9,49.2,30.16,South,180,0.0,0.0,63,0.00,,,0.00,WUHU216HW,2013-02-02 01:04:00,
2013-02-01 17:09:00,61.6,49.3,30.16,South,180,0.0,0.0,64,0.00,,,0.00,WUHU216HW,2013-02-02 01:09:00,
2013-02-01 17:14:00,61.0,49.2,30.15,South,180,0.0,0.0,65,0.00,,,0.00,WUHU216HW,2013-02-02 01:14:00,
2013-02-01 17:19:00,60.3,48.5,30.15,South,180,0.0,0.0,65,0.00,,,0.00,WUHU216HW,2013-02-02 01:19:00,
2013-02-01 17:24:00,59.4,48.4,30.15,South,180,0.0,0.0,67,0.00,,,0.00,WUHU216HW,2013-02-02 01:24:00,
2013-02-01 17:29:00,59.0,48.1,30.15,South,180,0.0,0.0,67,0.00,,,0.00,WUHU216HW,2013-02-02 01:29:00,
2013-02-01 17:34:00,58.5,48.0,30.15,South,180,0.0,0.0,68,0.00,,,0.00,WUHU216HW,2013-02-02 01:34:00,
2013-02-01 17:39:00,58.1,47.3,30.16,South,180,0.0,0.0,67,0.00,,,0.00,WUHU216HW,2013-02-02 01:39:00,
2013-02-01 17:44:00,57.8,47.3,30.16,South,180,0.0,0.0,68,0.00,,,0.00,WUHU216HW,2013-02-02 01:44:00,
2013-02-01 17:49:00,57.4,46.9,30.16,South,180,0.0,0.0,68,0.00,,,0.00,WUHU216HW,2013-02-02 01:49:00,
2013-02-01 17:54:00,57.1,47.0,30.17,South,180,0.0,0.0,69,0.00,,,0.00,WUHU216HW,2013-02-02 01:54:00,
2013-02-01 17:59:00,56.7,46.6,30.17,South,180,0.0,0.0,69,0.00,,,0.00,WUHU216HW,2013-02-02 01:59:00,
2013-02-01 18:04:00,55.8,46.5,30.17,South,180,0.0,0.0,71,0.00,,,0.00,WUHU216HW,2013-02-02 02:04:00,
2013-02-01 18:09:00,55.4,46.6,30.17,South,180,0.0,0.0,72,0.00,,,0.00,WUHU216HW,2013-02-02 02:09:00,
2013-02-01 18:14:00,55.4,46.9,30.17,South,180,0.0,0.0,73,0.00,,,0.00,WUHU216HW,2013-02-02 02:14:00,
2013-02-01 18:19:00,55.4,46.9,30.17,South,180,0.0,0.0,73,0.00,,,0.00,WUHU216HW,2013-02-02 02:19:00,
2013-02-01 18:24:00,55.3,46.7,30.18,South,180,0.0,0.0,73,0.00,,,0.00,WUHU216HW,2013-02-02 02:24:00,
2013-02-01 18:29:00,55.3,46.7,30.18,East,90,0.0,0.4,73,0.00,,,0.00,WUHU216HW,2013-02-02 02:29:00,
2013-02-01 18:34:00,54.9,46.1,30.19,East,90,0.0,0.4,72,0.00,,,0.00,WUHU216HW,2013-02-02 02:34:00,
2013-02-01 18:39:00,54.5,46.1,30.19,ESE,113,0.0,0.2,73,0.00,,,0.00,WUHU216HW,2013-02-02 02:39:00,
2013-02-01 18:44:00,54.2,45.7,30.19,East,90,0.0,0.0,73,0.00,,,0.00,WUHU216HW,2013-02-02 02:44:00,
2013-02-01 18:49:00,53.5,45.4,30.19,East,90,0.0,0.0,74,0.00,,,0.00,WUHU216HW,2013-02-02 02:49:00,
2013-02-01 18:54:00,53.1,44.6,30.19,East,90,0.0,0.0,73,0.00,,,0.00,WUHU216HW,2013-02-02 02:54:00,
2013-02-01 18:59:00,52.9,44.8,30.19,SE,135,0.4,0.4,74,0.00,,,0.00,WUHU216HW,2013-02-02 02:59:00,
2013-02-01 19:04:00,52.7,45.0,30.20,SSE,158,0.0,0.4,75,0.00,,,0.00,WUHU216HW,2013-02-02 03:04:00,
2013-02-01 19:09:00,52.4,44.7,30.20,SSE,158,0.0,0.2,75,0.00,,,0.00,WUHU216HW,2013-02-02 03:09:00,
2013-02-01 19:14:00,52.2,44.6,30.20,SSE,158,0.0,0.0,75,0.00,,,0.00,WUHU216HW,2013-02-02 03:14:00,
2013-02-01 19:19:00,51.8,44.2,30.21,SE,135,0.0,0.0,75,0.00,,,0.00,WUHU216HW,2013-02-02 03:19:00,
2013-02-01 19:24:00,51.5,44.6,30.21,East,90,0.0,0.2,77,0.00,,,0.00,WUHU216HW,2013-02-02 03:24:00,
2013-02-01 19:29:00,51.1,44.5,30.21,ESE,113,0.0,0.2,78,0.00,,,0.00,WUHU216HW,2013-02-02 03:29:00,
2013-02-01 19:34:00,50.8,44.1,30.21,East,90,0.0,0.2,78,0.00,,,0.00,WUHU216HW,2013-02-02 03:34:00,
2013-02-01 19:39:00,50.8,44.1,30.21,East,90,0.0,0.0,78,0.00,,,0.00,WUHU216HW,2013-02-02 03:39:00,
2013-02-01 19:44:00,50.9,44.6,30.22,East,90,0.0,0.0,79,0.00,,,0.00,WUHU216HW,2013-02-02 03:44:00,
2013-02-01 19:49:00,51.1,44.5,30.22,East,90,0.0,0.0,78,0.00,,,0.00,WUHU216HW,2013-02-02 03:49:00,
2013-02-01 19:54:00,50.9,44.3,30.22,East,90,0.0,0.0,78,0.00,,,0.00,WUHU216HW,2013-02-02 03:54:00,
2013-02-01 19:59:00,50.8,44.1,30.22,East,90,0.0,0.0,78,0.00,,,0.00,WUHU216HW,2013-02-02 03:59:00,
2013-02-01 20:04:00,50.6,43.9,30.22,East,90,0.0,0.0,78,0.00,,,0.00,WUHU216HW,2013-02-02 04:04:00,
2013-02-01 20:09:00,50.6,44.3,30.23,East,90,0.0,0.0,79,0.00,,,0.00,WUHU216HW,2013-02-02 04:09:00,
2013-02-01 20:14:00,50.6,44.3,30.23,East,90,0.0,0.0,79,0.00,,,0.00,WUHU216HW,2013-02-02 04:14:00,
2013-02-01 21:05:00,49.0,43.0,30.22,East,90,0.0,0.0,80,0.00,,,0.00,WUHU216HW,2013-02-02 05:05:00,
2013-02-01 21:10:00,49.0,43.0,30.23,East,90,0.0,0.0,80,0.00,,,0.00,WUHU216HW,2013-02-02 05:10:00,
2013-02-01 21:15:00,48.8,42.8,30.23,East,90,0.0,0.0,80,0.00,,,0.00,WUHU216HW,2013-02-02 05:15:00,
2013-02-01 21:20:00,48.6,42.7,30.23,East,90,0.0,0.0,80,0.00,,,0.00,WUHU216HW,2013-02-02 05:20:00,
2013-02-01 21:25:00,48.2,42.3,30.23,East,90,0.0,0.0,80,0.00,,,0.00,WUHU216HW,2013-02-02 05:25:00,
2013-02-01 21:27:00,48.1,42.1,30.23,NNW,338,0.0,0.0,80,0.00,,,0.00,WUHU216HW,2013-02-02 05:27:00,
2013-02-01 21:32:00,47.5,41.7,30.23,NNW,338,0.0,0.0,80,0.00,,,0.00,WUHU216HW,2013-02-02 05:32:00,
2013-02-01 21:37:00,47.5,41.7,30.23,NNW,338,0.0,0.0,80,0.00,,,0.00,WUHU216HW,2013-02-02 05:37:00,
2013-02-01 21:42:00,47.3,41.8,30.23,NNW,338,0.0,0.0,81,0.00,,,0.00,WUHU216HW,2013-02-02 05:42:00,
2013-02-01 21:47:00,47.2,41.7,30.23,NNW,338,0.0,0.0,81,0.00,,,0.00,WUHU216HW,2013-02-02 05:47:00,
2013-02-01 21:52:00,46.8,41.3,30.23,NNW,338,0.0,0.0,81,0.00,,,0.00,WUHU216HW,2013-02-02 05:52:00,
2013-02-01 21:57:00,46.6,41.5,30.22,NNW,338,0.0,0.0,82,0.00,,,0.00,WUHU216HW,2013-02-02 05:57:00,
2013-02-01 22:02:00,46.4,41.3,30.22,NNW,338,0.0,0.0,82,0.00,,,0.00,WUHU216HW,2013-02-02 06:02:00,
2013-02-01 22:07:00,46.4,41.6,30.22,NNW,338,0.0,0.0,83,0.00,,,0.00,WUHU216HW,2013-02-02 06:07:00,
2013-02-01 22:12:00,46.3,41.4,30.22,NNW,338,0.0,0.0,83,0.00,,,0.00,WUHU216HW,2013-02-02 06:12:00,
2013-02-01 22:17:00,46.3,41.4,30.23,West,270,0.0,0.4,83,0.00,,,0.00,WUHU216HW,2013-02-02 06:17:00,
2013-02-01 22:22:00,46.3,41.4,30.23,East,90,0.0,0.4,83,0.00,,,0.00,WUHU216HW,2013-02-02 06:22:00,
2013-02-01 22:27:00,45.9,41.0,30.23,ESE,113,0.0,0.0,83,0.00,,,0.00,WUHU216HW,2013-02-02 06:27:00,
2013-02-01 22:32:00,45.7,40.9,30.23,ESE,113,0.0,0.0,83,0.00,,,0.00,WUHU216HW,2013-02-02 06:32:00,
2013-02-01 22:37:00,45.7,40.9,30.23,ESE,113,0.0,0.0,83,0.00,,,0.00,WUHU216HW,2013-02-02 06:37:00,
2013-02-01 22:42:00,45.5,40.7,30.24,ESE,113,0.0,0.0,83,0.00,,,0.00,WUHU216HW,2013-02-02 06:42:00,
2013-02-01 22:47:00,45.4,40.5,30.24,ESE,113,0.0,0.0,83,0.00,,,0.00,WUHU216HW,2013-02-02 06:47:00,
2013-02-01 22:52:00,45.4,40.5,30.23,ESE,113,0.0,0.0,83,0.00,,,0.00,WUHU216HW,2013-02-02 06:52:00,
2013-02-01 22:57:00,45.2,40.7,30.24,ESE,113,0.0,0.0,84,0.00,,,0.00,WUHU216HW,2013-02-02 06:57:00,
2013-02-01 23:02:00,45.0,40.1,30.23,East,90,0.0,0.4,83,0.00,,,0.00,WUHU216HW,2013-02-02 07:02:00,
2013-02-01 23:07:00,45.2,40.7,30.24,SE,135,0.0,0.4,84,0.00,,,0.00,WUHU216HW,2013-02-02 07:07:00,
2013-02-01 23:12:00,45.0,40.5,30.24,ESE,113,0.0,0.0,84,0.00,,,0.00,WUHU216HW,2013-02-02 07:12:00,
2013-02-01 23:17:00,45.0,40.5,30.24,ESE,113,0.0,0.0,84,0.00,,,0.00,WUHU216HW,2013-02-02 07:17:00,
2013-02-01 23:22:00,45.0,40.5,30.24,ESE,113,0.0,0.0,84,0.00,,,0.00,WUHU216HW,2013-02-02 07:22:00,
2013-02-01 23:27:00,44.8,40.3,30.24,ESE,113,0.0,0.0,84,0.00,,,0.00,WUHU216HW,2013-02-02 07:27:00,
2013-02-01 23:32:00,44.3,40.3,30.24,East,90,0.0,0.0,86,0.00,,,0.00,WUHU216HW,2013-02-02 07:32:00,
2013-02-01 23:37:00,44.3,40.3,30.23,East,90,0.0,0.0,86,0.00,,,0.00,WUHU216HW,2013-02-02 07:37:00,
2013-02-01 23:42:00,44.3,40.1,30.23,East,90,0.0,0.0,85,0.00,,,0.00,WUHU216HW,2013-02-02 07:42:00,
2013-02-01 23:47:00,44.3,40.1,30.23,East,90,0.0,0.0,85,0.00,,,0.00,WUHU216HW,2013-02-02 07:47:00,
2013-02-01 23:52:00,44.3,40.1,30.23,East,90,0.0,0.0,85,0.00,,,0.00,WUHU216HW,2013-02-02 07:52:00,
2013-02-01 23:57:00,44.3,40.1,30.24,East,90,0.0,0.0,85,0.00,,,0.00,WUHU216HW,2013-02-02 07:57:00,